sensor_id;sensor_type;location;lat;lon;timestamp;P1;durP1;ratioP1;P2;durP2;ratioP2
75450;SDS011;64029;48.244;9.188;2023-11-21T00:00:10;2.27;;;1.90;;
75450;SDS011;64029;48.244;9.188;2023-11-21T00:02:37;6.43;;;2.00;;
75450;SDS011;64029;48.244;9.188;2023-11-21T00:05:07;3.80;;;2.07;;
75450;SDS011;64029;48.244;9.188;2023-11-21T00:07:34;3.50;;;1.93;;
75450;SDS011;64029;48.244;9.188;2023-11-21T00:10:02;2.70;;;1.53;;
75450;SDS011;64029;48.244;9.188;2023-11-21T00:12:30;5.50;;;2.60;;
75450;SDS011;64029;48.244;9.188;2023-11-21T00:14:57;3.43;;;1.87;;
75450;SDS011;64029;48.244;9.188;2023-11-21T00:17:23;2.63;;;1.67;;
75450;SDS011;64029;48.244;9.188;2023-11-21T00:19:50;7.40;;;2.37;;
75450;SDS011;64029;48.244;9.188;2023-11-21T00:22:19;5.90;;;2.50;;
75450;SDS011;64029;48.244;9.188;2023-11-21T00:24:46;4.87;;;1.90;;
75450;SDS011;64029;48.244;9.188;2023-11-21T00:27:13;6.87;;;1.73;;
75450;SDS011;64029;48.244;9.188;2023-11-21T00:29:40;7.83;;;2.47;;
75450;SDS011;64029;48.244;9.188;2023-11-21T00:32:07;2.93;;;1.90;;
75450;SDS011;64029;48.244;9.188;2023-11-21T00:34:34;3.57;;;1.80;;
75450;SDS011;64029;48.244;9.188;2023-11-21T00:37:00;3.40;;;1.53;;
75450;SDS011;64029;48.244;9.188;2023-11-21T00:39:29;9.33;;;1.80;;
75450;SDS011;64029;48.244;9.188;2023-11-21T00:41:58;7.27;;;1.83;;
75450;SDS011;64029;48.244;9.188;2023-11-21T00:44:24;3.23;;;1.93;;
75450;SDS011;64029;48.244;9.188;2023-11-21T00:46:51;7.20;;;2.00;;
75450;SDS011;64029;48.244;9.188;2023-11-21T00:49:18;3.87;;;2.17;;
75450;SDS011;64029;48.244;9.188;2023-11-21T00:51:45;4.50;;;1.90;;
75450;SDS011;64029;48.244;9.188;2023-11-21T00:54:12;3.10;;;1.50;;
75450;SDS011;64029;48.244;9.188;2023-11-21T00:56:43;4.50;;;1.60;;
75450;SDS011;64029;48.244;9.188;2023-11-21T00:59:12;9.87;;;2.10;;
75450;SDS011;64029;48.244;9.188;2023-11-21T01:01:39;6.23;;;1.70;;
75450;SDS011;64029;48.244;9.188;2023-11-21T01:04:06;5.80;;;2.47;;
75450;SDS011;64029;48.244;9.188;2023-11-21T01:06:33;6.07;;;1.60;;
75450;SDS011;64029;48.244;9.188;2023-11-21T01:08:59;4.93;;;1.90;;
75450;SDS011;64029;48.244;9.188;2023-11-21T01:11:29;3.87;;;2.00;;
75450;SDS011;64029;48.244;9.188;2023-11-21T01:13:57;5.83;;;1.73;;
75450;SDS011;64029;48.244;9.188;2023-11-21T01:16:25;10.63;;;2.17;;
75450;SDS011;64029;48.244;9.188;2023-11-21T01:18:52;3.03;;;1.63;;
75450;SDS011;64029;48.244;9.188;2023-11-21T01:21:19;5.53;;;1.67;;
75450;SDS011;64029;48.244;9.188;2023-11-21T01:23:46;4.17;;;1.93;;
75450;SDS011;64029;48.244;9.188;2023-11-21T01:26:13;4.70;;;2.43;;
75450;SDS011;64029;48.244;9.188;2023-11-21T01:28:40;2.90;;;2.03;;
75450;SDS011;64029;48.244;9.188;2023-11-21T01:31:08;5.07;;;1.57;;
75450;SDS011;64029;48.244;9.188;2023-11-21T01:33:35;4.23;;;1.73;;
75450;SDS011;64029;48.244;9.188;2023-11-21T01:36:02;2.00;;;1.43;;
75450;SDS011;64029;48.244;9.188;2023-11-21T01:38:30;1.60;;;1.50;;
75450;SDS011;64029;48.244;9.188;2023-11-21T01:40:58;4.20;;;1.57;;
75450;SDS011;64029;48.244;9.188;2023-11-21T01:43:25;3.73;;;1.60;;
75450;SDS011;64029;48.244;9.188;2023-11-21T01:45:53;1.87;;;1.13;;
75450;SDS011;64029;48.244;9.188;2023-11-21T01:48:23;3.53;;;1.50;;
75450;SDS011;64029;48.244;9.188;2023-11-21T01:50:51;3.03;;;1.33;;
75450;SDS011;64029;48.244;9.188;2023-11-21T01:53:18;3.23;;;1.70;;
75450;SDS011;64029;48.244;9.188;2023-11-21T01:55:45;3.27;;;1.60;;
75450;SDS011;64029;48.244;9.188;2023-11-21T01:58:14;7.90;;;1.87;;
75450;SDS011;64029;48.244;9.188;2023-11-21T02:00:41;3.67;;;1.73;;
75450;SDS011;64029;48.244;9.188;2023-11-21T02:03:08;8.30;;;1.57;;
75450;SDS011;64029;48.244;9.188;2023-11-21T02:05:38;4.10;;;1.50;;
75450;SDS011;64029;48.244;9.188;2023-11-21T02:08:05;3.70;;;1.50;;
75450;SDS011;64029;48.244;9.188;2023-11-21T02:10:34;3.20;;;1.60;;
75450;SDS011;64029;48.244;9.188;2023-11-21T02:13:02;6.20;;;1.60;;
75450;SDS011;64029;48.244;9.188;2023-11-21T02:15:29;3.10;;;1.73;;
75450;SDS011;64029;48.244;9.188;2023-11-21T02:17:56;6.13;;;1.50;;
75450;SDS011;64029;48.244;9.188;2023-11-21T02:20:24;4.60;;;2.17;;
75450;SDS011;64029;48.244;9.188;2023-11-21T02:22:53;2.43;;;1.47;;
75450;SDS011;64029;48.244;9.188;2023-11-21T02:25:23;7.77;;;1.80;;
75450;SDS011;64029;48.244;9.188;2023-11-21T02:27:50;4.17;;;1.77;;
75450;SDS011;64029;48.244;9.188;2023-11-21T02:30:17;4.07;;;1.73;;
75450;SDS011;64029;48.244;9.188;2023-11-21T02:32:43;5.13;;;1.83;;
75450;SDS011;64029;48.244;9.188;2023-11-21T02:35:11;3.33;;;1.60;;
75450;SDS011;64029;48.244;9.188;2023-11-21T02:37:38;3.50;;;1.57;;
75450;SDS011;64029;48.244;9.188;2023-11-21T02:40:08;3.00;;;1.53;;
75450;SDS011;64029;48.244;9.188;2023-11-21T02:42:37;6.00;;;1.57;;
75450;SDS011;64029;48.244;9.188;2023-11-21T02:45:05;2.50;;;1.30;;
75450;SDS011;64029;48.244;9.188;2023-11-21T02:47:32;2.87;;;1.40;;
75450;SDS011;64029;48.244;9.188;2023-11-21T02:49:59;2.07;;;1.27;;
75450;SDS011;64029;48.244;9.188;2023-11-21T02:52:26;3.63;;;1.57;;
75450;SDS011;64029;48.244;9.188;2023-11-21T02:54:53;2.80;;;1.20;;
75450;SDS011;64029;48.244;9.188;2023-11-21T02:57:21;3.10;;;1.20;;
75450;SDS011;64029;48.244;9.188;2023-11-21T02:59:50;2.60;;;1.43;;
75450;SDS011;64029;48.244;9.188;2023-11-21T03:02:17;4.10;;;1.30;;
75450;SDS011;64029;48.244;9.188;2023-11-21T03:04:44;6.23;;;1.70;;
75450;SDS011;64029;48.244;9.188;2023-11-21T03:07:13;3.37;;;1.43;;
75450;SDS011;64029;48.244;9.188;2023-11-21T03:09:40;2.50;;;1.00;;
75450;SDS011;64029;48.244;9.188;2023-11-21T03:12:07;1.40;;;1.30;;
75450;SDS011;64029;48.244;9.188;2023-11-21T03:14:36;2.70;;;1.10;;
75450;SDS011;64029;48.244;9.188;2023-11-21T03:17:03;1.40;;;1.23;;
75450;SDS011;64029;48.244;9.188;2023-11-21T03:19:31;2.70;;;1.23;;
75450;SDS011;64029;48.244;9.188;2023-11-21T03:21:58;1.97;;;1.17;;
75450;SDS011;64029;48.244;9.188;2023-11-21T03:24:25;4.20;;;1.43;;
75450;SDS011;64029;48.244;9.188;2023-11-21T03:26:52;1.57;;;1.20;;
75450;SDS011;64029;48.244;9.188;2023-11-21T03:29:19;2.63;;;1.13;;
75450;SDS011;64029;48.244;9.188;2023-11-21T03:31:47;1.80;;;1.50;;
75450;SDS011;64029;48.244;9.188;2023-11-21T03:34:15;3.33;;;1.30;;
75450;SDS011;64029;48.244;9.188;2023-11-21T03:36:46;1.43;;;1.00;;
75450;SDS011;64029;48.244;9.188;2023-11-21T03:39:12;1.63;;;0.90;;
75450;SDS011;64029;48.244;9.188;2023-11-21T03:41:39;2.60;;;1.10;;
75450;SDS011;64029;48.244;9.188;2023-11-21T03:44:06;4.37;;;1.10;;
75450;SDS011;64029;48.244;9.188;2023-11-21T03:46:33;2.37;;;1.10;;
75450;SDS011;64029;48.244;9.188;2023-11-21T03:49:01;1.47;;;1.00;;
75450;SDS011;64029;48.244;9.188;2023-11-21T03:51:28;2.13;;;1.00;;
75450;SDS011;64029;48.244;9.188;2023-11-21T03:53:55;5.13;;;1.10;;
75450;SDS011;64029;48.244;9.188;2023-11-21T03:56:22;2.93;;;1.10;;
75450;SDS011;64029;48.244;9.188;2023-11-21T03:58:48;2.07;;;1.00;;
75450;SDS011;64029;48.244;9.188;2023-11-21T04:01:19;2.90;;;1.27;;
75450;SDS011;64029;48.244;9.188;2023-11-21T04:03:47;1.43;;;0.80;;
75450;SDS011;64029;48.244;9.188;2023-11-21T04:06:15;2.90;;;1.00;;
75450;SDS011;64029;48.244;9.188;2023-11-21T04:08:43;1.70;;;1.33;;
75450;SDS011;64029;48.244;9.188;2023-11-21T04:11:10;2.60;;;1.20;;
75450;SDS011;64029;48.244;9.188;2023-11-21T04:13:37;4.27;;;1.00;;
75450;SDS011;64029;48.244;9.188;2023-11-21T04:16:05;2.60;;;1.00;;
75450;SDS011;64029;48.244;9.188;2023-11-21T04:18:32;2.03;;;1.07;;
75450;SDS011;64029;48.244;9.188;2023-11-21T04:21:00;1.67;;;1.17;;
75450;SDS011;64029;48.244;9.188;2023-11-21T04:23:29;2.87;;;1.13;;
75450;SDS011;64029;48.244;9.188;2023-11-21T04:25:56;2.27;;;1.00;;
75450;SDS011;64029;48.244;9.188;2023-11-21T04:28:24;2.53;;;1.07;;
75450;SDS011;64029;48.244;9.188;2023-11-21T04:30:51;3.00;;;1.30;;
75450;SDS011;64029;48.244;9.188;2023-11-21T04:33:17;1.50;;;1.20;;
75450;SDS011;64029;48.244;9.188;2023-11-21T04:35:44;1.97;;;0.80;;
75450;SDS011;64029;48.244;9.188;2023-11-21T04:38:11;2.30;;;1.03;;
75450;SDS011;64029;48.244;9.188;2023-11-21T04:40:39;4.23;;;1.20;;
75450;SDS011;64029;48.244;9.188;2023-11-21T04:43:06;2.03;;;1.30;;
75450;SDS011;64029;48.244;9.188;2023-11-21T04:45:33;1.67;;;1.10;;
75450;SDS011;64029;48.244;9.188;2023-11-21T04:48:00;3.57;;;1.27;;
75450;SDS011;64029;48.244;9.188;2023-11-21T04:50:26;1.10;;;0.90;;
75450;SDS011;64029;48.244;9.188;2023-11-21T04:52:53;3.77;;;1.10;;
75450;SDS011;64029;48.244;9.188;2023-11-21T04:55:20;3.23;;;1.30;;
75450;SDS011;64029;48.244;9.188;2023-11-21T04:57:48;5.60;;;1.63;;
75450;SDS011;64029;48.244;9.188;2023-11-21T05:00:15;2.20;;;1.20;;
75450;SDS011;64029;48.244;9.188;2023-11-21T05:02:42;2.27;;;1.50;;
75450;SDS011;64029;48.244;9.188;2023-11-21T05:05:09;4.60;;;1.20;;
75450;SDS011;64029;48.244;9.188;2023-11-21T05:07:37;3.83;;;1.23;;
75450;SDS011;64029;48.244;9.188;2023-11-21T05:10:04;2.37;;;1.40;;
75450;SDS011;64029;48.244;9.188;2023-11-21T05:12:35;2.20;;;1.00;;
75450;SDS011;64029;48.244;9.188;2023-11-21T05:15:05;4.30;;;1.20;;
75450;SDS011;64029;48.244;9.188;2023-11-21T05:17:34;1.93;;;1.33;;
75450;SDS011;64029;48.244;9.188;2023-11-21T05:20:02;1.30;;;1.20;;
75450;SDS011;64029;48.244;9.188;2023-11-21T05:22:33;1.80;;;1.40;;
75450;SDS011;64029;48.244;9.188;2023-11-21T05:25:00;3.97;;;1.40;;
75450;SDS011;64029;48.244;9.188;2023-11-21T05:27:28;1.63;;;1.10;;
75450;SDS011;64029;48.244;9.188;2023-11-21T05:29:55;1.37;;;1.00;;
75450;SDS011;64029;48.244;9.188;2023-11-21T05:32:24;4.10;;;1.40;;
75450;SDS011;64029;48.244;9.188;2023-11-21T05:34:51;1.80;;;1.33;;
75450;SDS011;64029;48.244;9.188;2023-11-21T05:37:18;1.77;;;1.17;;
75450;SDS011;64029;48.244;9.188;2023-11-21T05:39:45;2.63;;;1.97;;
75450;SDS011;64029;48.244;9.188;2023-11-21T05:42:12;9.50;;;2.40;;
75450;SDS011;64029;48.244;9.188;2023-11-21T05:44:40;8.43;;;3.63;;
75450;SDS011;64029;48.244;9.188;2023-11-21T05:47:09;3.80;;;2.30;;
75450;SDS011;64029;48.244;9.188;2023-11-21T05:49:37;4.20;;;2.97;;
75450;SDS011;64029;48.244;9.188;2023-11-21T05:52:04;5.13;;;2.30;;
75450;SDS011;64029;48.244;9.188;2023-11-21T05:54:31;3.43;;;2.07;;
75450;SDS011;64029;48.244;9.188;2023-11-21T05:56:59;2.20;;;1.70;;
75450;SDS011;64029;48.244;9.188;2023-11-21T05:59:26;1.67;;;1.43;;
75450;SDS011;64029;48.244;9.188;2023-11-21T06:01:52;2.07;;;1.10;;
75450;SDS011;64029;48.244;9.188;2023-11-21T06:04:19;2.17;;;1.20;;
75450;SDS011;64029;48.244;9.188;2023-11-21T06:06:50;3.70;;;1.37;;
75450;SDS011;64029;48.244;9.188;2023-11-21T06:09:17;1.30;;;1.13;;
75450;SDS011;64029;48.244;9.188;2023-11-21T06:11:44;3.23;;;1.40;;
75450;SDS011;64029;48.244;9.188;2023-11-21T06:14:11;2.03;;;1.50;;
75450;SDS011;64029;48.244;9.188;2023-11-21T06:16:38;1.93;;;1.10;;
75450;SDS011;64029;48.244;9.188;2023-11-21T06:19:06;1.60;;;1.07;;
75450;SDS011;64029;48.244;9.188;2023-11-21T06:21:33;2.37;;;1.20;;
75450;SDS011;64029;48.244;9.188;2023-11-21T06:24:01;1.33;;;1.13;;
75450;SDS011;64029;48.244;9.188;2023-11-21T06:26:28;2.80;;;1.10;;
75450;SDS011;64029;48.244;9.188;2023-11-21T06:28:56;2.70;;;1.03;;
75450;SDS011;64029;48.244;9.188;2023-11-21T06:31:23;5.20;;;1.40;;
75450;SDS011;64029;48.244;9.188;2023-11-21T06:33:50;1.73;;;0.80;;
75450;SDS011;64029;48.244;9.188;2023-11-21T06:36:17;1.10;;;1.00;;
75450;SDS011;64029;48.244;9.188;2023-11-21T06:38:44;1.13;;;1.00;;
75450;SDS011;64029;48.244;9.188;2023-11-21T06:41:13;1.90;;;1.67;;
75450;SDS011;64029;48.244;9.188;2023-11-21T06:43:41;3.17;;;1.07;;
75450;SDS011;64029;48.244;9.188;2023-11-21T06:46:10;2.17;;;1.10;;
75450;SDS011;64029;48.244;9.188;2023-11-21T06:48:39;2.27;;;1.30;;
75450;SDS011;64029;48.244;9.188;2023-11-21T06:51:06;1.40;;;1.00;;
75450;SDS011;64029;48.244;9.188;2023-11-21T06:53:33;1.43;;;1.00;;
75450;SDS011;64029;48.244;9.188;2023-11-21T06:56:01;2.03;;;1.27;;
75450;SDS011;64029;48.244;9.188;2023-11-21T06:58:30;1.20;;;1.00;;
75450;SDS011;64029;48.244;9.188;2023-11-21T07:00:56;2.33;;;1.00;;
75450;SDS011;64029;48.244;9.188;2023-11-21T07:03:23;1.10;;;0.90;;
75450;SDS011;64029;48.244;9.188;2023-11-21T07:05:51;1.43;;;1.23;;
75450;SDS011;64029;48.244;9.188;2023-11-21T07:08:18;4.80;;;1.40;;
75450;SDS011;64029;48.244;9.188;2023-11-21T07:10:44;1.20;;;1.10;;
75450;SDS011;64029;48.244;9.188;2023-11-21T07:13:12;7.73;;;1.63;;
75450;SDS011;64029;48.244;9.188;2023-11-21T07:15:41;1.87;;;1.00;;
75450;SDS011;64029;48.244;9.188;2023-11-21T07:18:08;3.60;;;1.40;;
75450;SDS011;64029;48.244;9.188;2023-11-21T07:20:36;5.70;;;1.10;;
75450;SDS011;64029;48.244;9.188;2023-11-21T07:23:03;2.40;;;1.43;;
75450;SDS011;64029;48.244;9.188;2023-11-21T07:25:30;1.77;;;1.63;;
75450;SDS011;64029;48.244;9.188;2023-11-21T07:27:58;1.67;;;1.40;;
75450;SDS011;64029;48.244;9.188;2023-11-21T07:30:25;3.30;;;1.50;;
75450;SDS011;64029;48.244;9.188;2023-11-21T07:32:54;2.10;;;1.30;;
75450;SDS011;64029;48.244;9.188;2023-11-21T07:35:21;2.87;;;1.30;;
75450;SDS011;64029;48.244;9.188;2023-11-21T07:37:48;4.80;;;1.03;;
75450;SDS011;64029;48.244;9.188;2023-11-21T07:40:15;3.43;;;1.33;;
75450;SDS011;64029;48.244;9.188;2023-11-21T07:42:43;2.77;;;2.10;;
75450;SDS011;64029;48.244;9.188;2023-11-21T07:45:09;2.50;;;1.97;;
75450;SDS011;64029;48.244;9.188;2023-11-21T07:47:36;2.33;;;2.13;;
75450;SDS011;64029;48.244;9.188;2023-11-21T07:50:06;2.90;;;2.07;;
75450;SDS011;64029;48.244;9.188;2023-11-21T07:52:34;3.93;;;2.30;;
75450;SDS011;64029;48.244;9.188;2023-11-21T07:55:01;2.67;;;2.40;;
75450;SDS011;64029;48.244;9.188;2023-11-21T07:57:28;2.63;;;2.30;;
75450;SDS011;64029;48.244;9.188;2023-11-21T07:59:55;2.73;;;2.53;;
75450;SDS011;64029;48.244;9.188;2023-11-21T08:02:22;2.70;;;2.43;;
75450;SDS011;64029;48.244;9.188;2023-11-21T08:04:49;2.83;;;2.17;;
75450;SDS011;64029;48.244;9.188;2023-11-21T08:07:18;2.40;;;2.20;;
75450;SDS011;64029;48.244;9.188;2023-11-21T08:09:45;2.57;;;2.37;;
75450;SDS011;64029;48.244;9.188;2023-11-21T08:12:14;3.20;;;2.63;;
75450;SDS011;64029;48.244;9.188;2023-11-21T08:14:41;2.83;;;2.53;;
75450;SDS011;64029;48.244;9.188;2023-11-21T08:17:09;3.20;;;2.20;;
75450;SDS011;64029;48.244;9.188;2023-11-21T08:19:36;2.90;;;2.00;;
75450;SDS011;64029;48.244;9.188;2023-11-21T08:22:03;2.87;;;2.57;;
75450;SDS011;64029;48.244;9.188;2023-11-21T08:24:34;3.47;;;3.17;;
75450;SDS011;64029;48.244;9.188;2023-11-21T08:27:02;3.13;;;2.53;;
75450;SDS011;64029;48.244;9.188;2023-11-21T08:29:29;3.57;;;2.57;;
75450;SDS011;64029;48.244;9.188;2023-11-21T08:31:57;7.83;;;6.17;;
75450;SDS011;64029;48.244;9.188;2023-11-21T08:34:25;6.03;;;4.70;;
75450;SDS011;64029;48.244;9.188;2023-11-21T08:36:51;4.97;;;3.73;;
75450;SDS011;64029;48.244;9.188;2023-11-21T08:39:18;3.60;;;3.30;;
75450;SDS011;64029;48.244;9.188;2023-11-21T08:41:46;3.33;;;2.77;;
75450;SDS011;64029;48.244;9.188;2023-11-21T08:44:13;2.93;;;2.63;;
75450;SDS011;64029;48.244;9.188;2023-11-21T08:46:41;4.50;;;3.13;;
75450;SDS011;64029;48.244;9.188;2023-11-21T08:49:10;6.07;;;3.20;;
75450;SDS011;64029;48.244;9.188;2023-11-21T08:51:37;3.23;;;2.60;;
75450;SDS011;64029;48.244;9.188;2023-11-21T08:54:04;5.37;;;3.20;;
75450;SDS011;64029;48.244;9.188;2023-11-21T08:56:33;7.27;;;2.93;;
75450;SDS011;64029;48.244;9.188;2023-11-21T08:59:01;3.87;;;2.30;;
75450;SDS011;64029;48.244;9.188;2023-11-21T09:01:28;3.50;;;2.20;;
75450;SDS011;64029;48.244;9.188;2023-11-21T09:03:56;2.60;;;2.03;;
75450;SDS011;64029;48.244;9.188;2023-11-21T09:06:23;4.23;;;2.23;;
75450;SDS011;64029;48.244;9.188;2023-11-21T09:08:50;7.23;;;3.43;;
75450;SDS011;64029;48.244;9.188;2023-11-21T09:11:17;6.70;;;4.50;;
75450;SDS011;64029;48.244;9.188;2023-11-21T09:13:44;6.07;;;4.67;;
75450;SDS011;64029;48.244;9.188;2023-11-21T09:16:13;5.87;;;4.20;;
75450;SDS011;64029;48.244;9.188;2023-11-21T09:18:40;6.63;;;4.20;;
75450;SDS011;64029;48.244;9.188;2023-11-21T09:21:07;3.97;;;2.87;;
75450;SDS011;64029;48.244;9.188;2023-11-21T09:23:35;3.93;;;3.10;;
75450;SDS011;64029;48.244;9.188;2023-11-21T09:26:02;3.63;;;2.80;;
75450;SDS011;64029;48.244;9.188;2023-11-21T09:28:30;3.83;;;2.10;;
75450;SDS011;64029;48.244;9.188;2023-11-21T09:30:57;1.67;;;1.57;;
75450;SDS011;64029;48.244;9.188;2023-11-21T09:33:25;3.17;;;2.07;;
75450;SDS011;64029;48.244;9.188;2023-11-21T09:35:52;1.90;;;1.63;;
75450;SDS011;64029;48.244;9.188;2023-11-21T09:38:19;3.47;;;1.40;;
75450;SDS011;64029;48.244;9.188;2023-11-21T09:40:46;4.67;;;1.80;;
75450;SDS011;64029;48.244;9.188;2023-11-21T09:43:15;1.87;;;1.50;;
75450;SDS011;64029;48.244;9.188;2023-11-21T09:45:44;3.50;;;2.27;;
75450;SDS011;64029;48.244;9.188;2023-11-21T09:48:12;2.20;;;2.00;;
75450;SDS011;64029;48.244;9.188;2023-11-21T09:50:42;5.80;;;1.67;;
75450;SDS011;64029;48.244;9.188;2023-11-21T09:53:11;2.33;;;2.00;;
75450;SDS011;64029;48.244;9.188;2023-11-21T09:55:41;2.27;;;1.60;;
75450;SDS011;64029;48.244;9.188;2023-11-21T09:58:09;2.10;;;1.90;;
75450;SDS011;64029;48.244;9.188;2023-11-21T10:00:39;1.50;;;1.40;;
75450;SDS011;64029;48.244;9.188;2023-11-21T10:03:07;1.93;;;1.40;;
75450;SDS011;64029;48.244;9.188;2023-11-21T10:05:34;1.50;;;1.30;;
75450;SDS011;64029;48.244;9.188;2023-11-21T10:08:02;1.50;;;1.37;;
75450;SDS011;64029;48.244;9.188;2023-11-21T10:10:33;1.27;;;1.10;;
75450;SDS011;64029;48.244;9.188;2023-11-21T10:13:02;2.17;;;1.30;;
75450;SDS011;64029;48.244;9.188;2023-11-21T10:15:31;1.43;;;1.10;;
75450;SDS011;64029;48.244;9.188;2023-11-21T10:18:01;4.30;;;1.37;;
75450;SDS011;64029;48.244;9.188;2023-11-21T10:20:29;1.30;;;1.00;;
75450;SDS011;64029;48.244;9.188;2023-11-21T10:22:58;1.20;;;1.00;;
75450;SDS011;64029;48.244;9.188;2023-11-21T10:25:28;1.43;;;1.10;;
75450;SDS011;64029;48.244;9.188;2023-11-21T10:27:57;1.20;;;1.10;;
75450;SDS011;64029;48.244;9.188;2023-11-21T10:30:31;1.60;;;1.10;;
75450;SDS011;64029;48.244;9.188;2023-11-21T10:33:02;1.47;;;1.10;;
75450;SDS011;64029;48.244;9.188;2023-11-21T10:35:42;3.10;;;1.40;;
75450;SDS011;64029;48.244;9.188;2023-11-21T10:38:13;1.40;;;1.20;;
75450;SDS011;64029;48.244;9.188;2023-11-21T10:40:42;1.00;;;0.90;;
75450;SDS011;64029;48.244;9.188;2023-11-21T10:43:10;1.30;;;1.20;;
75450;SDS011;64029;48.244;9.188;2023-11-21T10:45:38;1.20;;;1.10;;
75450;SDS011;64029;48.244;9.188;2023-11-21T10:48:06;1.87;;;1.40;;
75450;SDS011;64029;48.244;9.188;2023-11-21T10:50:34;1.37;;;1.27;;
75450;SDS011;64029;48.244;9.188;2023-11-21T10:53:01;4.20;;;1.90;;
75450;SDS011;64029;48.244;9.188;2023-11-21T10:55:30;2.30;;;1.50;;
75450;SDS011;64029;48.244;9.188;2023-11-21T10:57:59;1.50;;;1.40;;
75450;SDS011;64029;48.244;9.188;2023-11-21T11:00:30;2.10;;;1.47;;
75450;SDS011;64029;48.244;9.188;2023-11-21T11:02:57;1.40;;;1.30;;
75450;SDS011;64029;48.244;9.188;2023-11-21T11:05:25;1.40;;;1.30;;
75450;SDS011;64029;48.244;9.188;2023-11-21T11:07:56;1.67;;;1.20;;
75450;SDS011;64029;48.244;9.188;2023-11-21T11:10:26;3.27;;;1.30;;
75450;SDS011;64029;48.244;9.188;2023-11-21T11:12:54;1.47;;;1.23;;
75450;SDS011;64029;48.244;9.188;2023-11-21T11:15:23;1.10;;;1.00;;
75450;SDS011;64029;48.244;9.188;2023-11-21T11:17:52;1.23;;;1.13;;
75450;SDS011;64029;48.244;9.188;2023-11-21T11:20:22;1.20;;;1.10;;
75450;SDS011;64029;48.244;9.188;2023-11-21T11:23:08;4.20;;;2.20;;
75450;SDS011;64029;48.244;9.188;2023-11-21T11:25:51;2.33;;;1.47;;
75450;SDS011;64029;48.244;9.188;2023-11-21T11:28:27;2.30;;;1.50;;
75450;SDS011;64029;48.244;9.188;2023-11-21T11:31:05;1.70;;;1.50;;
75450;SDS011;64029;48.244;9.188;2023-11-21T11:33:57;1.43;;;1.00;;
75450;SDS011;64029;48.244;9.188;2023-11-21T11:36:31;1.70;;;1.27;;
75450;SDS011;64029;48.244;9.188;2023-11-21T11:39:02;1.20;;;1.10;;
75450;SDS011;64029;48.244;9.188;2023-11-21T11:41:49;1.37;;;1.27;;
75450;SDS011;64029;48.244;9.188;2023-11-21T11:47:19;3.70;;;2.10;;
75450;SDS011;64029;48.244;9.188;2023-11-21T11:50:00;2.93;;;2.07;;
75450;SDS011;64029;48.244;9.188;2023-11-21T11:52:32;3.73;;;2.27;;
75450;SDS011;64029;48.244;9.188;2023-11-21T11:55:05;2.80;;;1.50;;
75450;SDS011;64029;48.244;9.188;2023-11-21T11:57:35;1.50;;;1.20;;
75450;SDS011;64029;48.244;9.188;2023-11-21T12:00:10;1.27;;;1.10;;
75450;SDS011;64029;48.244;9.188;2023-11-21T12:02:45;1.93;;;1.23;;
75450;SDS011;64029;48.244;9.188;2023-11-21T12:05:13;1.10;;;1.00;;
75450;SDS011;64029;48.244;9.188;2023-11-21T12:07:43;1.20;;;1.00;;
75450;SDS011;64029;48.244;9.188;2023-11-21T12:10:14;2.03;;;1.03;;
75450;SDS011;64029;48.244;9.188;2023-11-21T12:12:43;0.93;;;0.83;;
75450;SDS011;64029;48.244;9.188;2023-11-21T12:15:11;1.17;;;1.03;;
75450;SDS011;64029;48.244;9.188;2023-11-21T12:17:39;2.60;;;1.13;;
75450;SDS011;64029;48.244;9.188;2023-11-21T12:20:10;1.47;;;1.37;;
75450;SDS011;64029;48.244;9.188;2023-11-21T12:22:43;1.93;;;1.10;;
75450;SDS011;64029;48.244;9.188;2023-11-21T12:25:13;2.13;;;1.83;;
75450;SDS011;64029;48.244;9.188;2023-11-21T12:27:43;2.00;;;1.30;;
75450;SDS011;64029;48.244;9.188;2023-11-21T12:30:12;1.53;;;1.37;;
75450;SDS011;64029;48.244;9.188;2023-11-21T12:32:40;2.00;;;1.50;;
75450;SDS011;64029;48.244;9.188;2023-11-21T12:35:09;2.27;;;1.40;;
75450;SDS011;64029;48.244;9.188;2023-11-21T12:37:37;1.97;;;1.67;;
75450;SDS011;64029;48.244;9.188;2023-11-21T12:40:05;2.00;;;1.70;;
75450;SDS011;64029;48.244;9.188;2023-11-21T12:42:36;1.90;;;1.60;;
75450;SDS011;64029;48.244;9.188;2023-11-21T12:45:10;2.87;;;1.47;;
75450;SDS011;64029;48.244;9.188;2023-11-21T12:47:45;2.00;;;1.80;;
75450;SDS011;64029;48.244;9.188;2023-11-21T12:50:15;1.60;;;1.50;;
75450;SDS011;64029;48.244;9.188;2023-11-21T12:52:42;1.57;;;1.47;;
75450;SDS011;64029;48.244;9.188;2023-11-21T12:55:15;1.90;;;1.50;;
75450;SDS011;64029;48.244;9.188;2023-11-21T12:57:43;2.43;;;1.90;;
75450;SDS011;64029;48.244;9.188;2023-11-21T13:00:12;1.60;;;1.50;;
75450;SDS011;64029;48.244;9.188;2023-11-21T13:02:51;1.30;;;1.20;;
75450;SDS011;64029;48.244;9.188;2023-11-21T13:05:26;2.03;;;1.30;;
75450;SDS011;64029;48.244;9.188;2023-11-21T13:07:53;1.33;;;1.23;;
75450;SDS011;64029;48.244;9.188;2023-11-21T13:10:23;2.47;;;1.53;;
75450;SDS011;64029;48.244;9.188;2023-11-21T13:12:54;1.90;;;1.60;;
75450;SDS011;64029;48.244;9.188;2023-11-21T13:15:23;1.47;;;1.37;;
75450;SDS011;64029;48.244;9.188;2023-11-21T13:17:50;2.00;;;1.30;;
75450;SDS011;64029;48.244;9.188;2023-11-21T13:20:18;2.10;;;1.43;;
75450;SDS011;64029;48.244;9.188;2023-11-21T13:22:48;2.27;;;1.80;;
75450;SDS011;64029;48.244;9.188;2023-11-21T13:25:16;1.33;;;1.10;;
75450;SDS011;64029;48.244;9.188;2023-11-21T13:27:44;1.10;;;1.00;;
75450;SDS011;64029;48.244;9.188;2023-11-21T13:30:12;1.53;;;1.30;;
75450;SDS011;64029;48.244;9.188;2023-11-21T13:32:43;1.57;;;0.90;;
75450;SDS011;64029;48.244;9.188;2023-11-21T13:35:11;1.30;;;1.00;;
75450;SDS011;64029;48.244;9.188;2023-11-21T13:37:40;2.30;;;2.10;;
75450;SDS011;64029;48.244;9.188;2023-11-21T13:40:12;1.30;;;1.10;;
75450;SDS011;64029;48.244;9.188;2023-11-21T13:42:40;1.70;;;0.90;;
75450;SDS011;64029;48.244;9.188;2023-11-21T13:45:08;1.20;;;1.10;;
75450;SDS011;64029;48.244;9.188;2023-11-21T13:47:37;1.30;;;1.10;;
75450;SDS011;64029;48.244;9.188;2023-11-21T13:50:05;3.37;;;1.70;;
75450;SDS011;64029;48.244;9.188;2023-11-21T13:52:39;2.30;;;2.10;;
75450;SDS011;64029;48.244;9.188;2023-11-21T13:55:06;1.63;;;1.43;;
75450;SDS011;64029;48.244;9.188;2023-11-21T13:57:40;1.97;;;1.20;;
75450;SDS011;64029;48.244;9.188;2023-11-21T14:00:10;1.60;;;1.20;;
75450;SDS011;64029;48.244;9.188;2023-11-21T14:02:58;1.50;;;1.40;;
75450;SDS011;64029;48.244;9.188;2023-11-21T14:05:26;2.10;;;1.87;;
75450;SDS011;64029;48.244;9.188;2023-11-21T14:07:54;4.83;;;3.33;;
75450;SDS011;64029;48.244;9.188;2023-11-21T14:10:27;3.67;;;2.67;;
75450;SDS011;64029;48.244;9.188;2023-11-21T14:13:03;1.73;;;1.50;;
75450;SDS011;64029;48.244;9.188;2023-11-21T14:15:31;1.50;;;1.30;;
75450;SDS011;64029;48.244;9.188;2023-11-21T14:18:02;2.80;;;1.80;;
75450;SDS011;64029;48.244;9.188;2023-11-21T14:20:32;4.10;;;2.40;;
75450;SDS011;64029;48.244;9.188;2023-11-21T14:23:01;3.97;;;2.90;;
75450;SDS011;64029;48.244;9.188;2023-11-21T14:25:28;3.10;;;2.73;;
75450;SDS011;64029;48.244;9.188;2023-11-21T14:27:55;5.80;;;3.83;;
75450;SDS011;64029;48.244;9.188;2023-11-21T14:30:23;4.23;;;3.20;;
75450;SDS011;64029;48.244;9.188;2023-11-21T14:32:51;3.67;;;3.33;;
75450;SDS011;64029;48.244;9.188;2023-11-21T14:35:18;6.23;;;3.57;;
75450;SDS011;64029;48.244;9.188;2023-11-21T14:37:45;5.90;;;4.33;;
75450;SDS011;64029;48.244;9.188;2023-11-21T14:40:12;5.63;;;3.50;;
75450;SDS011;64029;48.244;9.188;2023-11-21T14:42:41;3.83;;;3.23;;
75450;SDS011;64029;48.244;9.188;2023-11-21T14:45:12;3.73;;;2.97;;
75450;SDS011;64029;48.244;9.188;2023-11-21T14:47:45;2.03;;;1.67;;
75450;SDS011;64029;48.244;9.188;2023-11-21T14:50:20;2.43;;;2.23;;
75450;SDS011;64029;48.244;9.188;2023-11-21T14:53:08;4.10;;;2.90;;
75450;SDS011;64029;48.244;9.188;2023-11-21T14:55:37;3.50;;;2.70;;
75450;SDS011;64029;48.244;9.188;2023-11-21T14:58:17;9.27;;;5.60;;